Time;durP1;ratioP1;P1;durP2;ratioP2;P2;SDS_P1;SDS_P2;PMS_P1;PMS_P2;Temp;Humidity;BMP_temperature;BMP_pressure;BME280_temperature;BME280_humidity;BME280_pressure;Samples;Min_cycle;Max_cycle;Signal;HPM_P1;HPM_P2
2023/08/29 00:00:26;;;;;;;12.85;11.23;;;;;;;11.38;100.00;101204.69;5013606;28;20475;-71
2023/08/29 00:02:53;;;;;;;13.20;11.75;;;;;;;11.43;100.00;101205.47;5018045;28;20477;-72
2023/08/29 00:05:18;;;;;;;12.73;11.50;;;;;;;11.44;100.00;101194.09;5037919;28;20033;-71
2023/08/29 00:07:44;;;;;;;12.80;11.50;;;;;;;11.49;100.00;101194.91;5027034;28;20031;-72
2023/08/29 00:10:10;;;;;;;14.32;11.50;;;;;;;11.54;100.00;101194.91;5044527;28;20048;-72
2023/08/29 00:12:35;;;;;;;13.63;11.63;;;;;;;11.55;100.00;101194.88;5033680;28;20025;-67
2023/08/29 00:15:05;;;;;;;13.50;11.77;;;;;;;11.58;100.00;101188.72;5013856;28;20120;-67
2023/08/29 00:17:31;;;;;;;11.83;10.73;;;;;;;11.54;100.00;101184.41;5038180;28;20044;-67
2023/08/29 00:19:57;;;;;;;12.10;10.52;;;;;;;11.59;100.00;101186.09;5033774;28;20318;-67
2023/08/29 00:22:22;;;;;;;11.70;10.27;;;;;;;11.64;100.00;101180.78;5037836;28;20377;-67
2023/08/29 00:24:48;;;;;;;13.65;10.77;;;;;;;11.63;100.00;101173.78;5045300;28;20110;-67
2023/08/29 00:27:15;;;;;;;13.10;10.38;;;;;;;11.64;100.00;101167.66;5045394;28;20353;-67
2023/08/29 00:29:43;;;;;;;12.15;10.70;;;;;;;11.65;100.00;101169.41;5051518;28;20043;-67
2023/08/29 00:32:10;;;;;;;11.18;10.15;;;;;;;11.64;100.00;101166.78;5053038;28;20484;-67
2023/08/29 00:34:35;;;;;;;11.98;9.77;;;;;;;11.63;100.00;101173.78;5035459;28;20037;-67
2023/08/29 00:37:01;;;;;;;11.10;9.98;;;;;;;11.63;100.00;101171.16;5015969;28;20143;-67
2023/08/29 00:39:27;;;;;;;11.43;10.27;;;;;;;11.63;100.00;101176.41;5015781;28;20087;-67
2023/08/29 00:41:52;;;;;;;11.13;9.60;;;;;;;11.61;100.00;101167.69;5018311;28;20033;-67
2023/08/29 00:44:18;;;;;;;14.30;10.50;;;;;;;11.59;100.00;101172.06;5015984;28;20427;-67
2023/08/29 00:46:45;;;;;;;10.77;9.48;;;;;;;11.56;100.00;101170.34;5052043;28;20041;-67
2023/08/29 00:49:13;;;;;;;11.98;10.07;;;;;;;11.64;100.00;101165.03;5036294;28;20028;-67
2023/08/29 00:51:40;;;;;;;11.85;9.98;;;;;;;11.63;100.00;101165.91;5041926;28;20116;-67
2023/08/29 00:54:07;;;;;;;11.98;10.90;;;;;;;11.66;100.00;101165.00;5049998;28;20489;-67
2023/08/29 00:56:33;;;;;;;10.95;9.48;;;;;;;11.63;100.00;101160.66;5040276;28;20075;-67
2023/08/29 00:59:00;;;;;;;9.63;8.65;;;;;;;11.54;100.00;101163.41;5032725;28;20108;-67
2023/08/29 01:01:26;;;;;;;8.27;7.00;;;;;;;11.43;100.00;101156.50;5074006;22;20052;-67
2023/08/29 01:03:51;;;;;;;9.25;8.07;;;;;;;11.40;100.00;101160.91;5066292;28;20029;-72
2023/08/29 01:06:17;;;;;;;8.73;7.82;;;;;;;11.43;100.00;101156.50;5394619;23;20088;-67
2023/08/29 01:08:43;;;;;;;11.10;8.63;;;;;;;11.49;100.00;101168.66;5067950;28;20033;-67
2023/08/29 01:11:09;;;;;;;8.55;7.75;;;;;;;11.45;100.00;101164.38;5113728;22;20061;-67
2023/08/29 01:14:10;;;;;;;10.60;8.40;;;;;;;11.43;100.00;101174.88;5089286;22;20515;-71
2023/08/29 01:16:40;;;;;;;9.73;7.60;;;;;;;11.26;100.00;101167.16;5277831;22;20056;-70
2023/08/29 01:19:11;;;;;;;;;;;;;;;11.42;100.00;101167.88;5148708;22;20033;-68
2023/08/29 01:21:40;;;;;;;;;;;;;;;11.40;100.00;101160.91;5178561;22;19969;-71
2023/08/29 01:24:16;;;;;;;9.32;6.13;;;;;;;11.06;100.00;101167.34;5017924;28;19948;-72
2023/08/29 01:26:44;;;;;;;5.70;5.10;;;;;;;10.94;100.00;101167.44;5034858;28;20025;-71
2023/08/29 01:29:10;;;;;;;7.10;5.05;;;;;;;10.82;100.00;101167.53;5058676;23;20461;-67
2023/08/29 01:31:37;;;;;;;7.70;5.00;;;;;;;10.54;100.00;101162.47;5036015;28;20037;-67
2023/08/29 01:34:03;;;;;;;10.63;5.85;;;;;;;10.66;100.00;101169.38;5125112;22;20045;-67
2023/08/29 01:36:48;;;;;;;10.32;7.90;;;;;;;10.77;100.00;101162.31;5333689;22;20467;-70
2023/08/29 01:39:14;;;;;;;10.45;8.45;;;;;;;10.75;100.00;101164.94;5067640;28;20052;-72
2023/08/29 01:41:39;;;;;;;10.43;8.30;;;;;;;10.81;100.00;101164.03;5034333;28;20025;-71
2023/08/29 01:44:05;;;;;;;9.02;8.13;;;;;;;10.81;100.00;101168.41;5092844;23;20094;-67
2023/08/29 01:46:31;;;;;;;9.00;7.03;;;;;;;10.82;100.00;101160.53;5093058;22;20032;-70
2023/08/29 01:51:25;;;;;;;8.05;6.85;;;;;;;10.83;100.00;101169.25;5144012;22;21175;-70
2023/08/29 01:53:51;;;;;;;9.73;8.73;;;;;;;10.83;100.00;101178.03;5046873;28;20337;-71
2023/08/29 01:56:19;;;;;;;9.73;8.75;;;;;;;10.84;100.00;101171.00;5043783;28;20059;-71
2023/08/29 01:58:46;;;;;;;11.13;9.73;;;;;;;10.81;100.00;101174.53;5046773;28;20107;-71
2023/08/29 02:01:12;;;;;;;8.52;7.43;;;;;;;10.65;100.00;101173.75;5080141;23;20079;-70
2023/08/29 02:03:37;;;;;;;9.20;7.53;;;;;;;10.67;100.00;101177.22;5049714;28;20106;-71
2023/08/29 02:06:03;;;;;;;7.88;7.15;;;;;;;10.70;100.00;101182.47;5020748;28;20115;-71
2023/08/29 02:08:28;;;;;;;7.07;6.40;;;;;;;10.70;100.00;101182.47;5030280;28;20055;-71
2023/08/29 02:10:54;;;;;;;10.05;8.23;;;;;;;10.76;100.00;101178.94;5014739;28;20435;-71
2023/08/29 02:13:19;;;;;;;10.60;9.40;;;;;;;10.80;100.00;101185.03;5018998;28;20047;-71
2023/08/29 02:15:44;;;;;;;9.98;6.80;;;;;;;10.50;100.00;101181.72;5028534;28;20099;-72
2023/08/29 02:18:10;;;;;;;22.70;7.65;;;;;;;10.44;100.00;101189.63;5034793;28;20129;-71
2023/08/29 02:20:36;;;;;;;26.73;9.68;;;;;;;10.55;100.00;101198.28;5013344;28;20041;-71
2023/08/29 02:23:02;;;;;;;8.00;7.20;;;;;;;10.54;100.00;101194.81;5015395;28;20032;-71
2023/08/29 02:25:27;;;;;;;9.43;8.52;;;;;;;10.63;100.00;101199.13;5030342;28;20033;-71
2023/08/29 02:27:54;;;;;;;10.95;9.82;;;;;;;10.73;100.00;101197.28;5010585;28;20052;-72
2023/08/29 02:30:20;;;;;;;10.63;8.32;;;;;;;10.68;100.00;101199.94;5004151;28;20030;-71
2023/08/29 02:32:45;;;;;;;8.65;7.32;;;;;;;10.60;100.00;101206.13;5022719;28;20477;-71
2023/08/29 02:35:11;;;;;;;25.52;8.73;;;;;;;10.47;100.00;101216.66;5015689;28;20037;-71
2023/08/29 02:37:37;;;;;;;297.70;19.88;;;;;;;10.34;100.00;101228.09;5030268;28;20032;-71
2023/08/29 02:40:07;;;;;;;453.55;26.73;;;;;;;10.03;100.00;101223.81;5011124;28;20048;-71
2023/08/29 02:42:32;;;;;;;24.83;6.22;;;;;;;10.13;100.00;101231.63;5035098;28;20021;-71
2023/08/29 02:44:58;;;;;;;9.65;6.70;;;;;;;10.17;100.00;101228.13;5016873;28;20036;-71
2023/08/29 02:47:23;;;;;;;6.80;6.10;;;;;;;10.22;100.00;101229.00;5023336;28;20484;-71
2023/08/29 02:49:48;;;;;;;6.55;5.22;;;;;;;10.14;100.00;101222.91;5037790;28;20393;-72
2023/08/29 02:52:14;;;;;;;7.50;5.60;;;;;;;10.23;100.00;101217.66;5046489;28;20483;-71
2023/08/29 02:54:39;;;;;;;6.57;5.32;;;;;;;10.28;100.00;101230.72;5020607;28;20431;-71
2023/08/29 02:57:06;;;;;;;17.95;7.25;;;;;;;10.20;100.00;101234.22;5033368;28;20040;-71
2023/08/29 02:59:31;;;;;;;54.00;7.88;;;;;;;9.96;100.00;101232.56;5015438;28;20053;-70
2023/08/29 03:01:57;;;;;;;256.55;20.30;;;;;;;9.99;100.00;101240.41;5041981;28;20090;-70
2023/08/29 03:04:23;;;;;;;154.90;17.48;;;;;;;10.03;100.00;101236.91;5032328;28;20045;-71
2023/08/29 03:06:51;;;;;;;22.33;7.90;;;;;;;10.11;100.00;101241.25;5033283;28;20499;-70
2023/08/29 03:09:16;;;;;;;18.20;7.10;;;;;;;10.12;100.00;101236.00;5034286;28;20034;-70
2023/08/29 03:11:42;;;;;;;152.80;21.25;;;;;;;9.99;100.00;101248.25;5028474;28;20029;-70
2023/08/29 03:14:07;;;;;;;69.47;13.35;;;;;;;10.04;100.00;101240.38;5010601;28;20053;-70
2023/08/29 03:16:32;;;;;;;10.93;7.40;;;;;;;10.05;100.00;101235.13;5018056;28;20495;-71
2023/08/29 03:18:58;;;;;;;11.85;7.63;;;;;;;10.03;100.00;101226.44;5013219;28;20038;-71
2023/08/29 03:21:23;;;;;;;12.95;9.15;;;;;;;10.00;100.00;101221.22;5017144;28;20483;-72
2023/08/29 03:23:49;;;;;;;18.90;11.43;;;;;;;10.08;100.00;101218.56;5038576;28;20026;-72
2023/08/29 03:26:14;;;;;;;9.98;8.95;;;;;;;10.08;100.00;101217.69;5020220;28;20101;-72
2023/08/29 03:28:40;;;;;;;9.70;7.35;;;;;;;10.14;100.00;101213.31;5037355;28;20033;-74
2023/08/29 03:31:15;;;;;;;7.82;7.07;;;;;;;10.19;100.00;101211.53;5037421;28;20500;-73
2023/08/29 03:33:43;;;;;;;9.27;8.00;;;;;;;10.20;100.00;101208.03;5026820;28;20176;-73
2023/08/29 03:36:10;;;;;;;13.10;8.38;;;;;;;10.21;100.00;101209.78;5019745;28;20033;-73
2023/08/29 03:38:38;;;;;;;10.18;9.00;;;;;;;10.26;100.00;101199.28;5033986;28;20041;-73
2023/08/29 03:41:05;;;;;;;9.20;8.30;;;;;;;10.22;100.00;101197.56;5038365;28;20358;-73
2023/08/29 03:43:32;;;;;;;7.65;6.78;;;;;;;10.13;100.00;101194.97;5018733;28;20388;-73
2023/08/29 03:45:59;;;;;;;8.40;5.68;;;;;;;9.95;100.00;101191.53;5029779;28;20035;-73
2023/08/29 03:48:25;;;;;;;150.10;13.48;;;;;;;9.88;100.00;101181.97;5027972;28;20037;-73
2023/08/29 03:50:50;;;;;;;7.07;6.05;;;;;;;9.90;100.00;101185.47;5029612;28;20025;-73
2023/08/29 03:53:16;;;;;;;5.43;4.88;;;;;;;10.04;100.00;101175.81;5026517;28;20037;-73
2023/08/29 03:55:41;;;;;;;5.60;5.03;;;;;;;10.04;100.00;101167.06;5027398;28;20476;-73
2023/08/29 03:58:07;;;;;;;7.50;5.70;;;;;;;9.88;100.00;101166.25;5009776;28;20247;-73
2023/08/29 04:00:32;;;;;;;4.82;4.43;;;;;;;9.94;100.00;101174.13;5011694;28;20103;-73
2023/08/29 04:02:59;;;;;;;7.15;5.57;;;;;;;9.98;100.00;101170.59;5026455;28;20119;-73
2023/08/29 04:05:25;;;;;;;8.88;6.22;;;;;;;9.95;100.00;101165.38;5029754;28;20063;-73
2023/08/29 04:07:51;;;;;;;8.95;8.05;;;;;;;10.04;100.00;101165.34;5011864;28;20029;-73
2023/08/29 04:10:20;;;;;;;11.65;8.18;;;;;;;10.00;100.00;101163.63;5027072;28;20045;-73
2023/08/29 04:12:46;;;;;;;9.82;7.93;;;;;;;10.01;100.00;101157.50;5009577;28;20030;-73
2023/08/29 04:15:12;;;;;;;9.48;7.22;;;;;;;9.94;100.00;101153.19;5011810;28;20504;-73
2023/08/29 04:17:40;;;;;;;6.80;6.20;;;;;;;9.91;100.00;101145.31;5025337;28;20155;-73
2023/08/29 04:20:08;;;;;;;9.27;8.35;;;;;;;10.05;100.00;101147.88;5030507;28;20037;-73
2023/08/29 04:22:35;;;;;;;7.50;5.30;;;;;;;9.79;100.00;101154.09;5025873;28;20066;-73
2023/08/29 04:25:04;;;;;;;111.95;12.93;;;;;;;9.75;100.00;101154.09;5025480;28;20033;-73
2023/08/29 04:27:30;;;;;;;70.57;8.48;;;;;;;9.75;100.00;101152.34;5024631;28;20120;-73
2023/08/29 04:29:55;;;;;;;7.70;5.80;;;;;;;9.77;100.00;101153.22;5008445;28;20108;-73
2023/08/29 04:32:21;;;;;;;7.05;5.78;;;;;;;9.81;100.00;101144.50;5008034;28;20381;-73
2023/08/29 04:34:46;;;;;;;10.25;7.63;;;;;;;9.79;100.00;101143.63;5026027;28;20038;-73
2023/08/29 04:37:13;;;;;;;14.10;7.40;;;;;;;9.88;100.00;101142.72;5008495;28;20065;-73
2023/08/29 04:39:38;;;;;;;12.73;7.38;;;;;;;9.83;100.00;101141.88;5009852;28;20120;-74
2023/08/29 04:42:06;;;;;;;10.85;7.70;;;;;;;9.95;100.00;101139.19;5026941;28;20219;-73
2023/08/29 04:44:33;;;;;;;8.30;7.50;;;;;;;9.97;100.00;101136.56;5025599;28;20205;-73
2023/08/29 04:46:59;;;;;;;12.38;6.32;;;;;;;9.87;100.00;101134.00;5025700;28;20049;-72
2023/08/29 04:49:24;;;;;;;9.43;5.93;;;;;;;9.80;100.00;101134.03;5026111;28;20055;-72
2023/08/29 04:51:50;;;;;;;14.32;5.78;;;;;;;9.67;100.00;101138.44;5008578;28;20035;-72
2023/08/29 04:54:18;;;;;;;5.80;5.20;;;;;;;9.75;100.00;101141.03;5025316;28;20044;-73
2023/08/29 04:56:43;;;;;;;6.45;5.78;;;;;;;9.73;100.00;101137.56;5025345;28;20480;-74
2023/08/29 04:59:09;;;;;;;9.75;5.63;;;;;;;9.65;100.00;101148.88;5010678;28;20042;-73
2023/08/29 05:01:37;;;;;;;6.38;5.20;;;;;;;9.70;100.00;101151.50;5024694;28;20045;-74
2023/08/29 05:04:04;;;;;;;6.22;5.63;;;;;;;9.66;100.00;101148.03;5008072;28;20045;-74
2023/08/29 05:06:29;;;;;;;5.72;5.22;;;;;;;9.71;100.00;101151.50;5022589;28;20499;-74
2023/08/29 05:08:55;;;;;;;5.07;4.43;;;;;;;9.67;100.00;101155.00;5005990;28;20033;-74
2023/08/29 05:11:21;;;;;;;9.45;8.32;;;;;;;9.89;100.00;101152.31;5024372;28;20540;-74
2023/08/29 05:13:46;;;;;;;5.68;5.07;;;;;;;9.69;100.00;101155.84;5007089;28;20033;-74
2023/08/29 05:16:12;;;;;;;7.68;6.72;;;;;;;9.73;100.00;101153.25;5007787;28;20037;-74
2023/08/29 05:18:37;;;;;;;8.55;7.57;;;;;;;9.75;100.00;101154.97;5025307;28;20083;-73
2023/08/29 05:21:03;;;;;;;8.63;7.82;;;;;;;9.80;100.00;101149.75;5041048;28;20034;-73
2023/08/29 05:23:28;;;;;;;9.77;7.60;;;;;;;9.65;100.00;101150.66;5023158;28;20037;-74
2023/08/29 05:25:54;;;;;;;8.90;7.93;;;;;;;9.70;100.00;101157.59;5008608;28;20034;-73
2023/08/29 05:28:20;;;;;;;10.25;9.20;;;;;;;9.70;100.00;101157.59;5006884;28;20033;-73
2023/08/29 05:30:45;;;;;;;11.05;8.85;;;;;;;9.76;100.00;101161.94;5025681;28;20420;-73
2023/08/29 05:33:12;;;;;;;11.20;9.55;;;;;;;9.79;100.00;101163.69;5025884;28;20036;-73
2023/08/29 05:35:37;;;;;;;10.55;9.52;;;;;;;9.88;100.00;101161.03;5024837;28;20107;-73
2023/08/29 05:38:03;;;;;;;13.10;11.63;;;;;;;9.94;100.00;101162.75;5009615;28;20038;-73
2023/08/29 05:40:30;;;;;;;14.23;12.57;;;;;;;9.96;100.00;101161.03;5005806;28;20041;-74
2023/08/29 05:42:56;;;;;;;12.43;10.70;;;;;;;9.99;100.00;101159.25;5005720;28;20118;-74
2023/08/29 05:45:21;;;;;;;11.52;10.32;;;;;;;10.17;100.00;101149.56;5024958;28;20116;-74
2023/08/29 05:47:46;;;;;;;10.05;9.15;;;;;;;10.28;100.00;101158.22;5007969;28;20533;-73
2023/08/29 05:50:12;;;;;;;10.85;9.10;;;;;;;10.44;100.00;101160.81;5009324;28;20521;-74
2023/08/29 05:52:37;;;;;;;11.10;10.10;;;;;;;10.56;100.00;101158.97;5024457;28;20053;-74
2023/08/29 05:55:03;;;;;;;10.48;9.43;;;;;;;10.65;100.00;101168.53;5024714;28;20056;-74
2023/08/29 05:57:29;;;;;;;10.65;9.55;;;;;;;10.79;100.00;101162.31;4992720;28;20128;-74
2023/08/29 05:59:55;;;;;;;11.35;9.68;;;;;;;10.91;100.00;101164.84;4991007;28;20136;-73
2023/08/29 06:02:20;;;;;;;10.60;9.52;;;;;;;10.96;100.00;101170.94;5008480;28;20128;-73
2023/08/29 06:04:46;;;;;;;12.18;10.40;;;;;;;11.05;100.00;101167.38;5007345;28;20053;-73
2023/08/29 06:07:12;;;;;;;11.32;10.23;;;;;;;11.22;100.00;101161.94;5038859;28;20091;-73
2023/08/29 06:09:40;;;;;;;10.63;9.63;;;;;;;11.55;100.00;101162.50;5024633;28;20095;-73
2023/08/29 06:12:06;;;;;;;10.25;9.27;;;;;;;11.76;100.00;101166.66;5024069;28;20453;-72
2023/08/29 06:14:32;;;;;;;11.60;9.52;;;;;;;11.96;100.00;101158.56;5006798;28;20136;-74
2023/08/29 06:16:57;;;;;;;12.90;8.57;;;;;;;12.17;100.00;101159.16;5039277;28;20116;-74
2023/08/29 06:19:23;;;;;;;8.85;7.95;;;;;;;13.06;100.00;101165.72;5008477;28;20036;-74
2023/08/29 06:21:48;;;;;;;9.25;8.35;;;;;;;13.54;100.00;101171.94;5006651;28;20087;-74
2023/08/29 06:24:14;;;;;;;9.55;7.78;;;;;;;13.88;100.00;101171.25;5006621;28;20025;-74
2023/08/29 06:26:40;;;;;;;8.23;7.43;;;;;;;14.34;100.00;101167.69;5022857;28;20376;-73
2023/08/29 06:29:05;;;;;;;8.43;7.20;;;;;;;14.35;100.00;101172.03;5023642;28;20037;-74
2023/08/29 06:31:31;;;;;;;7.80;6.97;;;;;;;14.80;100.00;101169.28;5022526;28;20033;-73
2023/08/29 06:33:57;;;;;;;10.32;7.25;;;;;;;15.17;99.40;101172.75;5005342;28;20047;-74
2023/08/29 06:36:22;;;;;;;17.98;8.00;;;;;;;15.57;96.47;101175.22;4986116;28;20041;-74
2023/08/29 06:38:48;;;;;;;10.30;7.00;;;;;;;15.96;94.83;101175.94;5003744;28;20029;-73
2023/08/29 06:41:14;;;;;;;10.75;7.60;;;;;;;16.17;93.44;101172.69;5019888;28;20026;-73
2023/08/29 06:43:40;;;;;;;8.80;7.57;;;;;;;16.35;91.86;101180.97;5024286;28;20041;-74
2023/08/29 06:46:05;;;;;;;8.63;7.68;;;;;;;16.65;91.10;101167.69;5007683;28;20044;-74
2023/08/29 06:48:30;;;;;;;9.35;7.20;;;;;;;16.59;90.57;101174.03;5021204;28;20124;-74
2023/08/29 06:50:56;;;;;;;8.73;7.68;;;;;;;16.81;91.40;101171.59;5004582;28;20025;-73
2023/08/29 06:53:23;;;;;;;8.57;7.40;;;;;;;16.83;90.84;101167.09;5026059;28;20124;-73
2023/08/29 06:55:49;;;;;;;8.85;7.95;;;;;;;16.71;90.77;101164.88;5023148;28;20029;-74
2023/08/29 06:58:15;;;;;;;8.60;7.35;;;;;;;16.89;88.28;101164.28;5006216;28;20033;-74
2023/08/29 07:00:40;;;;;;;9.18;7.30;;;;;;;17.01;89.67;101175.38;5007715;28;20036;-74
2023/08/29 07:03:06;;;;;;;7.28;6.32;;;;;;;17.01;89.32;101167.44;5022675;28;20088;-74
2023/08/29 07:05:31;;;;;;;7.50;6.70;;;;;;;17.04;89.95;101167.34;5023641;28;20039;-74
2023/08/29 07:07:58;;;;;;;9.43;7.95;;;;;;;17.11;90.67;101168.84;5009586;28;20025;-74
2023/08/29 07:10:23;;;;;;;8.90;6.97;;;;;;;17.08;90.89;101156.63;5006868;28;20043;-73
2023/08/29 07:12:49;;;;;;;7.72;6.97;;;;;;;16.69;89.88;101164.03;5002665;28;20034;-74
2023/08/29 07:15:15;;;;;;;10.45;6.82;;;;;;;16.97;90.67;101158.75;5003422;28;20036;-74
2023/08/29 07:17:40;;;;;;;8.32;6.93;;;;;;;16.85;91.33;101160.00;5019383;28;20165;-74
2023/08/29 07:20:08;;;;;;;9.90;6.68;;;;;;;17.09;91.09;101160.13;5021248;28;20483;-74
2023/08/29 07:22:36;;;;;;;7.57;6.25;;;;;;;17.01;92.01;101164.78;5021623;28;20083;-74
2023/08/29 07:25:03;;;;;;;8.40;5.82;;;;;;;16.95;91.28;101164.09;5017839;28;20025;-74
2023/08/29 07:27:29;;;;;;;8.00;6.20;;;;;;;17.29;91.79;101170.88;5002496;28;20195;-72
2023/08/29 07:29:55;;;;;;;9.00;5.68;;;;;;;17.25;91.44;101169.25;5019424;28;20128;-72
2023/08/29 07:32:20;;;;;;;8.38;5.68;;;;;;;17.20;90.48;101159.75;5019707;28;20033;-72
2023/08/29 07:34:46;;;;;;;7.72;5.95;;;;;;;17.41;90.30;101166.06;5019752;28;20037;-73
2023/08/29 07:37:11;;;;;;;6.47;5.78;;;;;;;17.33;90.12;101165.50;5003051;28;20372;-72
2023/08/29 07:39:37;;;;;;;8.40;6.05;;;;;;;17.43;91.59;101164.25;5002973;28;20026;-75
2023/08/29 07:42:03;;;;;;;7.82;5.60;;;;;;;17.44;90.64;101166.84;5002496;28;20058;-73
2023/08/29 07:44:29;;;;;;;7.10;5.50;;;;;;;17.60;90.04;101167.16;5019149;28;20037;-68
2023/08/29 07:46:55;;;;;;;6.35;5.15;;;;;;;17.54;88.37;101174.47;5005346;28;20482;-68
2023/08/29 07:49:21;;;;;;;7.57;5.65;;;;;;;17.77;91.26;101178.94;5006151;28;20427;-68
2023/08/29 07:51:47;;;;;;;9.73;6.28;;;;;;;17.89;89.98;101180.28;5020284;28;20029;-68
2023/08/29 07:54:12;;;;;;;8.23;5.40;;;;;;;17.86;89.27;101178.59;5003685;28;20464;-68
2023/08/29 07:56:39;;;;;;;9.82;5.32;;;;;;;18.10;88.81;101182.16;5022296;28;20033;-69
2023/08/29 07:59:04;;;;;;;6.55;5.20;;;;;;;18.03;88.06;101179.78;5002834;28;20037;-73
2023/08/29 08:01:30;;;;;;;8.45;5.28;;;;;;;18.24;88.03;101181.63;4986800;28;20057;-73
2023/08/29 08:03:55;;;;;;;8.18;5.10;;;;;;;18.34;86.08;101180.34;5022100;28;20045;-73
2023/08/29 08:06:21;;;;;;;8.73;4.72;;;;;;;18.29;86.99;101187.63;5002331;28;20373;-68
2023/08/29 08:08:46;;;;;;;7.47;5.10;;;;;;;18.21;86.95;101187.03;5021823;28;20068;-68
2023/08/29 08:11:11;;;;;;;5.75;4.55;;;;;;;17.95;88.18;101188.88;5004787;28;20120;-67
2023/08/29 08:13:37;;;;;;;8.38;4.78;;;;;;;17.63;86.43;101193.56;5005305;28;20034;-68
2023/08/29 08:16:02;;;;;;;7.70;5.00;;;;;;;17.65;88.79;101194.34;5023659;28;20081;-68
2023/08/29 08:18:28;;;;;;;8.00;5.50;;;;;;;17.16;89.59;101180.16;5004793;28;20029;-68
2023/08/29 08:20:53;;;;;;;7.35;6.20;;;;;;;17.12;89.84;101178.53;5022316;28;20032;-68
2023/08/29 08:23:19;;;;;;;7.25;6.05;;;;;;;17.23;90.83;101180.84;5021427;28;20449;-68
2023/08/29 08:25:45;;;;;;;6.70;6.10;;;;;;;17.17;88.89;101176.63;5007436;28;20029;-68
2023/08/29 08:28:12;;;;;;;7.80;6.75;;;;;;;17.31;91.55;101179.66;5022144;28;20090;-68
2023/08/29 08:30:37;;;;;;;8.05;6.35;;;;;;;17.58;90.00;101190.19;5006267;28;20531;-68
2023/08/29 08:33:05;;;;;;;9.95;8.90;;;;;;;17.32;90.09;101183.16;5023618;28;20045;-68
2023/08/29 08:35:30;;;;;;;12.07;10.80;;;;;;;17.36;90.37;101189.22;5010092;28;20029;-69
2023/08/29 08:37:56;;;;;;;11.18;10.18;;;;;;;17.16;89.51;101184.63;5023272;28;20029;-69
2023/08/29 08:40:22;;;;;;;11.15;10.05;;;;;;;17.04;89.60;101185.88;5022605;28;20133;-68
2023/08/29 08:42:48;;;;;;;9.75;8.85;;;;;;;16.97;88.81;101179.94;5006358;28;20048;-68
2023/08/29 08:45:14;;;;;;;10.38;9.48;;;;;;;16.95;90.00;101184.38;5006128;28;20049;-68
2023/08/29 08:47:40;;;;;;;11.55;10.63;;;;;;;17.01;92.06;101180.69;5041530;28;20123;-68
2023/08/29 08:50:10;;;;;;;11.32;10.20;;;;;;;17.08;90.65;101182.19;5023086;28;20662;-68
2023/08/29 08:52:36;;;;;;;11.38;10.30;;;;;;;17.27;89.85;101188.63;5021089;28;20028;-68
2023/08/29 09:02:47;;;;;;;9.82;8.95;;;;;;;17.58;88.72;101176.94;5320770;22;20049;-68
2023/08/29 09:05:13;;;;;;;9.88;8.95;;;;;;;17.79;88.37;101180.59;5012897;28;20030;-68
2023/08/29 09:07:40;;;;;;;9.00;8.10;;;;;;;17.87;87.50;101184.75;4994617;28;20409;-68
2023/08/29 09:10:08;;;;;;;9.38;8.57;;;;;;;17.81;86.59;101183.19;4998220;28;20544;-68
2023/08/29 09:12:34;;;;;;;7.57;6.70;;;;;;;17.79;85.01;101177.09;4999329;28;20030;-68
2023/08/29 09:15:05;;;;;;;9.10;7.18;;;;;;;17.81;84.72;101185.84;4978020;28;20025;-68
2023/08/29 09:17:31;;;;;;;6.60;6.00;;;;;;;17.99;86.66;101168.44;4963810;28;20397;-68
2023/08/29 09:19:59;;;;;;;6.90;5.47;;;;;;;18.23;86.66;101179.03;4996482;28;20025;-68
2023/08/29 09:22:25;;;;;;;4.90;4.28;;;;;;;18.42;83.54;101180.06;4996155;28;20030;-68
2023/08/29 09:24:50;;;;;;;6.03;4.55;;;;;;;18.59;84.62;101171.44;5012009;28;20045;-68
2023/08/29 09:27:17;;;;;;;7.53;6.20;;;;;;;18.70;84.94;101179.81;4978621;28;20044;-68
2023/08/29 09:29:42;;;;;;;7.93;6.47;;;;;;;18.75;82.94;101181.41;4978825;28;20041;-68
2023/08/29 09:32:15;;;;;;;6.10;5.50;;;;;;;18.83;80.20;101180.19;4995542;28;20041;-68
2023/08/29 09:34:41;;;;;;;5.95;5.10;;;;;;;18.73;78.36;101181.47;4994879;28;20022;-68
2023/08/29 09:37:07;;;;;;;5.75;5.13;;;;;;;18.80;80.43;101176.78;4980040;28;20049;-69
2023/08/29 09:39:33;;;;;;;7.68;5.10;;;;;;;18.93;80.75;101187.78;4995160;28;20030;-68
2023/08/29 09:42:07;;;;;;;7.10;5.15;;;;;;;18.81;79.08;101178.53;4995346;28;20038;-67
2023/08/29 09:44:37;;;;;;;6.60;5.15;;;;;;;19.02;81.33;101174.13;4978080;28;20041;-68
2023/08/29 09:47:08;;;;;;;6.22;5.22;;;;;;;19.26;80.03;101176.69;4988642;28;20176;-68
2023/08/29 09:49:39;;;;;;;4.95;4.32;;;;;;;19.38;76.84;101171.72;4995018;28;20075;-68
2023/08/29 09:52:05;;;;;;;5.30;4.78;;;;;;;19.45;77.96;101171.44;5013700;28;20030;-67
2023/08/29 09:54:32;;;;;;;6.60;5.20;;;;;;;19.32;75.54;101166.66;4962447;28;20164;-68
2023/08/29 09:57:05;;;;;;;7.05;4.57;;;;;;;19.40;77.63;101163.66;5011476;28;20041;-68
2023/08/29 09:59:34;;;;;;;6.57;4.90;;;;;;;19.49;74.32;101167.72;4994329;28;20175;-68
2023/08/29 10:02:01;;;;;;;6.32;4.63;;;;;;;19.74;77.45;101160.38;4994333;28;20129;-68
2023/08/29 10:04:29;;;;;;;4.82;3.95;;;;;;;19.82;78.32;101169.84;4978775;28;20048;-68
2023/08/29 10:06:59;;;;;;;5.43;3.13;;;;;;;19.74;71.94;101164.84;4993618;28;20036;-68
2023/08/29 10:09:25;;;;;;;;;;;;;;;20.18;76.90;101156.63;5012579;28;20032;-68
2023/08/29 10:11:52;;;;;;;3.05;2.75;;;;;;;19.86;71.29;101160.78;4978014;28;19924;-71
2023/08/29 10:14:20;;;;;;;5.05;3.70;;;;;;;19.84;73.59;101158.19;4976846;28;20049;-71
2023/08/29 10:16:47;;;;;;;4.60;3.72;;;;;;;19.82;73.46;101154.72;4979422;28;20026;-71
2023/08/29 10:19:14;;;;;;;4.85;3.80;;;;;;;19.70;73.06;101160.59;4979586;28;20048;-71
2023/08/29 10:21:42;;;;;;;4.75;3.10;;;;;;;19.47;72.22;101161.63;4994933;28;20049;-70
2023/08/29 10:24:11;;;;;;;4.53;3.40;;;;;;;19.60;76.47;101154.81;4993763;28;20025;-71
2023/08/29 10:26:38;;;;;;;4.25;3.40;;;;;;;19.34;75.59;101156.81;4995547;28;20148;-71
2023/08/29 10:29:05;;;;;;;4.20;3.40;;;;;;;19.16;72.22;101160.28;4977733;28;20041;-71
2023/08/29 10:31:35;;;;;;;4.35;3.30;;;;;;;19.04;73.68;101151.03;4995333;28;20033;-71
2023/08/29 10:34:03;;;;;;;4.07;3.30;;;;;;;19.27;76.88;101152.72;5008388;28;20085;-71
2023/08/29 10:36:29;;;;;;;4.20;3.00;;;;;;;19.12;74.30;101148.94;4975204;28;20046;-70
2023/08/29 10:38:59;;;;;;;4.20;3.17;;;;;;;19.07;74.17;101147.41;5018836;28;20064;-70
2023/08/29 10:41:25;;;;;;;4.97;3.10;;;;;;;18.74;73.73;101145.19;4979176;28;20034;-71
2023/08/29 10:44:24;;;;;;;5.75;3.97;;;;;;;19.18;75.92;101150.47;4978101;28;20053;-71
2023/08/29 10:46:53;;;;;;;3.63;3.33;;;;;;;18.93;77.41;101148.81;5011515;28;20032;-71
2023/08/29 10:49:21;;;;;;;5.22;3.88;;;;;;;19.05;78.17;101147.47;4995170;28;20029;-71
2023/08/29 10:52:10;;;;;;;6.07;3.95;;;;;;;19.12;76.41;101145.38;4991878;28;20120;-71
2023/08/29 10:54:37;;;;;;;3.80;3.33;;;;;;;19.17;76.34;101138.94;4995295;28;20053;-70
2023/08/29 10:57:27;;;;;;;4.10;3.70;;;;;;;19.32;76.50;101140.09;4994328;28;20033;-71
2023/08/29 10:59:52;;;;;;;;;;;;;;;19.65;77.15;101139.53;5027243;28;20026;-70
2023/08/29 11:02:29;;;;;;;4.20;3.80;;;;;;;19.01;72.20;101130.78;4991745;28;19925;-71
2023/08/29 11:05:03;;;;;;;5.78;3.63;;;;;;;19.26;76.21;101132.38;4990806;28;20117;-71
2023/08/29 11:07:30;;;;;;;4.53;3.88;;;;;;;19.15;75.32;101129.31;4989779;28;20132;-71
2023/08/29 11:10:20;;;;;;;5.53;4.35;;;;;;;19.13;74.41;101131.19;4989190;28;20477;-70
2023/08/29 11:13:15;;;;;;;4.55;3.97;;;;;;;19.24;73.37;101125.41;4967326;28;20027;-71
2023/08/29 11:15:49;;;;;;;5.30;4.10;;;;;;;19.25;77.15;101121.81;4986581;28;20032;-71
2023/08/29 11:18:26;;;;;;;6.10;4.68;;;;;;;19.60;75.47;101112.28;4986518;28;20492;-70
2023/08/29 11:20:52;;;;;;;5.63;4.32;;;;;;;19.84;74.02;101117.44;4979502;28;20077;-71
2023/08/29 11:23:19;;;;;;;4.45;3.72;;;;;;;19.89;71.59;101108.31;4962256;28;20470;-71
2023/08/29 11:25:50;;;;;;;4.85;2.75;;;;;;;19.94;68.29;101118.75;4961756;28;20030;-71
2023/08/29 11:28:16;;;;;;;3.67;2.63;;;;;;;20.15;67.26;101106.22;4968551;28;20050;-72